Terminal Aerodrome Forecast
Issued by NWS

Home | Current Version | Previous Version | Text Only | Print | Product List | Glossary On
Versions: 1 2 3 4 5 6 7 8 9 10 11 12 13 14 15 16 17 18 19 20 21 22 23 24 25 26 27 28 29 30 31 32
000
FTUS43 KMKX 230524
TAFENW
TAF
KENW 230524Z 2306/2406 25013KT P6SM SKC
     FM230800 29007KT P6SM SKC
     FM231100 33006KT P6SM SCT006 BKN015
     FM231300 03012KT 5SM BR BKN006 OVC015
     FM231500 03010KT P6SM SCT006 OVC020
     FM231800 03012KT P6SM BKN040
     FM240200 03013KT 5SM -RA BR OVC015
     FM240500 05015G23KT 2SM RA BR OVC003=

USA.gov is the U.S. government's official web portal to all federal, state and local government web resources and services.